createdAt,value
2023-01-13T00:00:17.181Z,8.61
2023-01-13T00:03:25.903Z,8.61
2023-01-13T00:06:59.785Z,8.61
2023-01-13T00:11:18.193Z,8.62
2023-01-13T00:15:48.079Z,8.65
2023-01-13T00:26:53.748Z,8.68
2023-01-13T00:30:02.901Z,8.70
2023-01-13T00:33:40.013Z,8.70
2023-01-13T00:37:17.747Z,8.73
2023-01-13T00:40:51.463Z,8.73
2023-01-13T00:44:25.215Z,8.73
2023-01-13T00:47:54.825Z,8.71
2023-01-13T00:51:30.836Z,8.72
2023-01-13T00:54:57.881Z,8.72
2023-01-13T00:59:15.957Z,8.73
2023-01-13T01:03:45.666Z,8.72
2023-01-13T01:08:15.344Z,8.69
2023-01-13T01:12:45.076Z,8.67
2023-01-13T01:16:26.662Z,8.65
2023-01-13T01:20:34.745Z,8.64
2023-01-13T01:24:01.545Z,8.64
2023-01-13T01:28:31.140Z,8.62
2023-01-13T01:35:15.775Z,8.65
2023-01-13T01:42:13.795Z,8.70
2023-01-13T01:45:52.723Z,8.71
2023-01-13T01:49:28.871Z,8.72
2023-01-13T01:57:19.418Z,8.70
2023-01-13T02:01:49.096Z,8.70
2023-01-13T02:05:34.387Z,8.70
2023-01-13T02:09:52.897Z,8.68
2023-01-13T02:14:22.591Z,8.65
2023-01-13T02:18:53.323Z,8.62
2023-01-13T02:23:41.742Z,8.60
2023-01-13T02:27:24.448Z,8.62
2023-01-13T02:30:41.775Z,8.64
2023-01-13T02:33:59.840Z,8.66
2023-01-13T02:37:29.555Z,8.68
2023-01-13T02:41:05.779Z,8.67
2023-01-13T02:44:35.685Z,8.72
2023-01-13T02:48:09.499Z,8.76
2023-01-13T02:51:41.620Z,8.84
2023-01-13T02:55:09.493Z,8.85
2023-01-13T02:58:40.987Z,8.84
2023-01-13T03:02:14.485Z,8.74
2023-01-13T03:05:47.435Z,8.66
2023-01-13T03:09:17.333Z,8.59
2023-01-13T03:13:05.767Z,8.57
2023-01-13T03:17:39.718Z,8.55
2023-01-13T03:22:13.450Z,8.52
2023-01-13T03:26:48.976Z,8.53
2023-01-13T03:33:38.716Z,8.55
2023-01-13T03:38:08.284Z,8.52
2023-01-13T03:46:02.543Z,8.50
2023-01-13T03:50:33.629Z,8.48
2023-01-13T03:54:03.560Z,8.44
2023-01-13T03:57:39.686Z,8.43
2023-01-13T04:01:12.859Z,8.43
2023-01-13T04:05:16.320Z,8.42
2023-01-13T04:08:50.637Z,8.40
2023-01-13T04:12:23.644Z,8.36
2023-01-13T04:16:44.731Z,8.39
2023-01-13T04:24:29.439Z,8.46
2023-01-13T04:35:25.595Z,8.54
2023-01-13T04:38:58.773Z,8.57
2023-01-13T04:43:17.668Z,8.57
2023-01-13T04:47:47.205Z,8.52
2023-01-13T04:52:17.041Z,8.51
2023-01-13T04:56:46.668Z,8.51
2023-01-13T05:00:30.352Z,8.53
2023-01-13T05:04:28.863Z,8.57
2023-01-13T05:07:57.369Z,8.61
2023-01-13T05:11:27.662Z,8.64
2023-01-13T05:15:01.624Z,8.68
2023-01-13T05:18:33.497Z,8.73
2023-01-13T05:22:07.527Z,8.75
2023-01-13T05:25:44.008Z,8.76
2023-01-13T05:29:13.065Z,8.79
2023-01-13T05:32:49.750Z,8.80
2023-01-13T05:37:09.673Z,8.84
2023-01-13T05:48:04.588Z,8.82
2023-01-13T05:51:34.583Z,8.83
2023-01-13T05:55:04.817Z,8.82
2023-01-13T05:58:32.251Z,8.82
2023-01-13T06:01:54.782Z,8.81
2023-01-13T06:04:23.428Z,8.82
2023-01-13T06:06:52.175Z,8.82
2023-01-13T06:09:23.056Z,8.83
2023-01-13T06:11:51.805Z,8.84
2023-01-13T06:14:20.514Z,8.87
2023-01-13T06:16:49.273Z,8.88
2023-01-13T06:19:17.939Z,8.90
2023-01-13T06:21:46.925Z,8.93
2023-01-13T06:24:15.773Z,8.95
2023-01-13T06:26:44.637Z,8.97
2023-01-13T06:29:15.398Z,8.97
2023-01-13T06:31:44.239Z,8.99
2023-01-13T06:34:15.271Z,8.99
2023-01-13T06:36:52.487Z,9.01
2023-01-13T06:39:25.731Z,9.03
2023-01-13T06:42:13.752Z,9.04
2023-01-13T06:44:43.483Z,9.05
2023-01-13T06:47:12.196Z,9.05
2023-01-13T06:49:40.928Z,9.05
2023-01-13T06:52:09.674Z,9.05
2023-01-13T06:54:38.329Z,9.06
2023-01-13T06:57:07.005Z,9.08
2023-01-13T06:59:35.751Z,9.07
2023-01-13T07:02:04.771Z,9.09
2023-01-13T07:04:33.611Z,9.06
2023-01-13T07:07:02.319Z,9.06
2023-01-13T07:09:31.047Z,9.06
2023-01-13T07:11:59.720Z,9.07
2023-01-13T07:14:48.617Z,9.06
2023-01-13T07:17:29.504Z,9.04
2023-01-13T07:20:00.581Z,9.04
2023-01-13T07:22:29.255Z,9.06
2023-01-13T07:25:01.663Z,9.06
2023-01-13T07:27:30.992Z,9.08
2023-01-13T07:29:59.907Z,9.10
2023-01-13T07:32:29.396Z,9.11
2023-01-13T07:35:05.062Z,9.12
2023-01-13T07:37:39.628Z,9.12
2023-01-13T07:40:10.240Z,9.14
2023-01-13T07:42:58.232Z,9.17
2023-01-13T07:45:27.447Z,9.17
2023-01-13T07:47:56.620Z,9.17
2023-01-13T07:50:25.617Z,9.18
2023-01-13T07:52:58.753Z,9.20
2023-01-13T07:55:27.537Z,9.19
2023-01-13T07:57:56.313Z,9.19
2023-01-13T08:00:25.197Z,9.21
2023-01-13T08:02:53.894Z,9.23
2023-01-13T08:05:24.502Z,9.26
2023-01-13T08:07:53.945Z,9.28
2023-01-13T08:10:27.017Z,9.30
2023-01-13T08:13:14.615Z,9.32
2023-01-13T08:15:44.353Z,9.35
2023-01-13T08:18:15.167Z,9.38
2023-01-13T08:20:44.428Z,9.38
2023-01-13T08:23:13.236Z,9.40
2023-01-13T08:25:42.169Z,9.40
2023-01-13T08:28:11.733Z,9.39
2023-01-13T08:30:40.825Z,9.38
2023-01-13T08:33:12.422Z,9.36
2023-01-13T08:35:42.815Z,9.38
2023-01-13T08:38:11.828Z,9.39
2023-01-13T08:40:41.288Z,9.42
2023-01-13T08:43:10.017Z,9.46
2023-01-13T08:45:38.768Z,9.50
2023-01-13T08:48:12.726Z,9.54
2023-01-13T08:50:41.650Z,9.60
2023-01-13T08:53:10.831Z,9.65
2023-01-13T08:55:41.252Z,9.68
2023-01-13T08:58:15.850Z,9.71
2023-01-13T09:00:45.304Z,9.69
2023-01-13T09:03:13.943Z,9.67
2023-01-13T09:05:42.648Z,9.63
2023-01-13T09:08:11.394Z,9.62
2023-01-13T09:10:40.846Z,9.61
2023-01-13T09:13:13.985Z,9.60
2023-01-13T09:15:46.265Z,9.62
2023-01-13T09:18:15.267Z,9.64
2023-01-13T09:20:45.010Z,9.63
2023-01-13T09:23:13.695Z,9.62
2023-01-13T09:25:42.461Z,9.63
2023-01-13T09:28:11.082Z,9.65
2023-01-13T09:30:39.832Z,9.68
2023-01-13T09:33:27.367Z,9.73
2023-01-13T09:35:59.607Z,9.77
2023-01-13T09:38:28.530Z,9.80
2023-01-13T09:40:57.310Z,9.80
2023-01-13T09:43:56.464Z,9.74
2023-01-13T09:46:47.689Z,9.69
2023-01-13T09:49:25.122Z,9.66
2023-01-13T09:52:16.254Z,9.67
2023-01-13T09:54:54.234Z,9.72
2023-01-13T09:57:22.939Z,9.76
2023-01-13T09:59:51.760Z,9.82
2023-01-13T10:02:20.465Z,9.89
2023-01-13T10:05:23.500Z,9.98
2023-01-13T10:08:00.086Z,10.06
2023-01-13T10:10:43.385Z,10.12
2023-01-13T10:13:38.514Z,10.16
2023-01-13T10:16:28.331Z,10.22
2023-01-13T10:19:15.500Z,10.25
2023-01-13T10:22:09.519Z,10.31
2023-01-13T10:25:10.260Z,10.39
2023-01-13T10:27:43.457Z,10.45
2023-01-13T10:30:34.237Z,10.52
2023-01-13T10:33:10.847Z,10.63
2023-01-13T10:35:58.273Z,10.71
2023-01-13T10:38:42.208Z,10.76
2023-01-13T10:41:16.712Z,10.80
2023-01-13T10:43:57.423Z,10.81
2023-01-13T10:46:26.951Z,10.79
2023-01-13T10:48:57.799Z,10.72
2023-01-13T10:51:26.484Z,10.64
2023-01-13T10:54:24.531Z,10.59
2023-01-13T10:57:20.229Z,10.56
2023-01-13T10:59:51.403Z,10.50
2023-01-13T11:02:36.350Z,10.51
2023-01-13T11:05:24.979Z,10.51
2023-01-13T11:07:56.661Z,10.51
2023-01-13T11:10:29.620Z,10.52
2023-01-13T11:13:05.681Z,10.53
2023-01-13T11:16:05.746Z,10.56
2023-01-13T11:19:02.855Z,10.59
2023-01-13T11:22:06.623Z,10.65
2023-01-13T11:25:03.680Z,10.77
2023-01-13T11:27:52.720Z,10.89
2023-01-13T11:30:59.201Z,11.01
2023-01-13T11:33:53.845Z,11.13
2023-01-13T11:36:32.019Z,11.16
2023-01-13T11:39:30.146Z,11.19
2023-01-13T11:42:21.598Z,11.22
2023-01-13T11:45:10.770Z,11.22
2023-01-13T11:47:39.845Z,11.18
2023-01-13T11:50:43.423Z,11.16
2023-01-13T11:53:21.661Z,11.13
2023-01-13T11:55:55.596Z,11.06
2023-01-13T11:59:14.679Z,11.04
2023-01-13T12:02:11.292Z,11.01
2023-01-13T12:05:05.534Z,10.99
2023-01-13T12:07:54.063Z,10.97
2023-01-13T12:10:24.380Z,10.98
2023-01-13T12:13:04.680Z,11.00
2023-01-13T12:15:56.478Z,10.99
2023-01-13T12:18:39.745Z,11.02
2023-01-13T12:21:33.309Z,11.07
2023-01-13T12:24:29.800Z,11.09
2023-01-13T12:27:26.383Z,11.13
2023-01-13T12:30:00.274Z,11.22
2023-01-13T12:32:40.720Z,11.30
2023-01-13T12:35:38.124Z,11.38
2023-01-13T12:38:23.358Z,11.44
2023-01-13T12:41:27.106Z,11.53
2023-01-13T12:44:16.519Z,11.55
2023-01-13T12:46:53.555Z,11.55
2023-01-13T12:49:34.299Z,11.57
2023-01-13T12:52:16.386Z,11.57
2023-01-13T12:54:45.025Z,11.56
2023-01-13T12:57:24.930Z,11.56
2023-01-13T13:00:13.781Z,11.60
2023-01-13T13:03:04.771Z,11.64
2023-01-13T13:05:49.297Z,11.64
2023-01-13T13:08:42.901Z,11.63
2023-01-13T13:11:32.819Z,11.55
2023-01-13T13:14:39.833Z,11.42
2023-01-13T13:17:20.527Z,11.29
2023-01-13T13:19:50.458Z,11.19
2023-01-13T13:22:22.528Z,11.11
2023-01-13T13:25:00.107Z,11.00
2023-01-13T13:27:38.041Z,10.94
2023-01-13T13:30:34.141Z,10.91
2023-01-13T13:33:56.290Z,10.85
2023-01-13T13:36:56.044Z,10.77
2023-01-13T13:39:48.803Z,10.69
2023-01-13T13:42:45.241Z,10.61
2023-01-13T13:45:43.267Z,10.54
2023-01-13T13:48:30.882Z,10.52
2023-01-13T13:51:31.921Z,10.47
2023-01-13T13:54:03.015Z,10.38
2023-01-13T13:56:43.760Z,10.27
2023-01-13T13:59:20.791Z,10.14
2023-01-13T14:02:04.032Z,9.98
2023-01-13T14:04:39.494Z,9.84
2023-01-13T14:07:22.990Z,9.71
2023-01-13T14:09:56.922Z,9.56
2023-01-13T14:12:28.332Z,9.45
2023-01-13T14:15:11.955Z,9.36
2023-01-13T14:17:42.893Z,9.26
2023-01-13T14:20:18.996Z,9.17
2023-01-13T14:22:54.235Z,9.08
2023-01-13T14:25:40.005Z,9.03
2023-01-13T14:28:44.907Z,8.97
2023-01-13T14:31:24.246Z,8.90
2023-01-13T14:34:01.626Z,8.86
2023-01-13T14:36:33.446Z,8.85
2023-01-13T14:39:05.153Z,8.84
2023-01-13T14:41:47.439Z,8.83
2023-01-13T14:44:30.135Z,8.81
2023-01-13T14:47:23.981Z,8.76
2023-01-13T14:50:05.808Z,8.70
2023-01-13T14:52:48.373Z,8.69
2023-01-13T14:55:40.683Z,8.68
2023-01-13T14:58:21.441Z,8.66
2023-01-13T15:00:53.097Z,8.67
2023-01-13T15:03:22.263Z,8.66
2023-01-13T15:05:55.846Z,8.64
2023-01-13T15:08:32.326Z,8.64
2023-01-13T15:11:21.842Z,8.66
2023-01-13T15:14:10.527Z,8.68
2023-01-13T15:16:41.798Z,8.68
2023-01-13T15:19:12.029Z,8.66
2023-01-13T15:21:42.511Z,8.60
2023-01-13T15:24:11.842Z,8.53
2023-01-13T15:26:43.732Z,8.48
2023-01-13T15:29:18.022Z,8.44
2023-01-13T15:31:46.742Z,8.43
2023-01-13T15:34:15.701Z,8.42
2023-01-13T15:36:45.083Z,8.38
2023-01-13T15:39:14.132Z,8.36
2023-01-13T15:42:01.203Z,8.40
2023-01-13T15:44:48.202Z,8.38
2023-01-13T15:47:17.421Z,8.29
2023-01-13T15:49:47.310Z,8.27
2023-01-13T15:52:22.407Z,8.24
2023-01-13T15:54:53.237Z,8.18
2023-01-13T15:57:26.669Z,8.11
2023-01-13T16:00:01.977Z,8.02
2023-01-13T16:02:31.520Z,7.91
2023-01-13T16:05:00.661Z,7.76
2023-01-13T16:07:32.936Z,7.63
2023-01-13T16:10:03.813Z,7.54
2023-01-13T16:12:34.359Z,7.44
2023-01-13T16:15:03.233Z,7.36
2023-01-13T16:17:35.803Z,7.32
2023-01-13T16:20:05.065Z,7.37
2023-01-13T16:22:33.740Z,7.45
2023-01-13T16:25:02.768Z,7.52
2023-01-13T16:27:58.073Z,7.49
2023-01-13T16:30:36.730Z,7.44
2023-01-13T16:33:10.494Z,7.43
2023-01-13T16:36:09.446Z,7.38
2023-01-13T16:38:28.010Z,7.33
2023-01-13T16:40:57.925Z,7.28
2023-01-13T16:43:28.196Z,7.24
2023-01-13T16:45:56.951Z,7.24
2023-01-13T16:48:25.907Z,7.21
2023-01-13T16:50:55.009Z,7.23
2023-01-13T16:53:23.949Z,7.24
2023-01-13T16:55:53.209Z,7.22
2023-01-13T16:58:22.196Z,7.20
2023-01-13T17:00:54.933Z,7.20
2023-01-13T17:03:25.186Z,7.21
2023-01-13T17:06:03.996Z,7.19
2023-01-13T17:08:32.796Z,7.28
2023-01-13T17:11:01.741Z,7.33
2023-01-13T17:13:30.459Z,7.29
2023-01-13T17:15:59.121Z,7.24
2023-01-13T17:18:32.065Z,7.16
2023-01-13T17:21:01.740Z,7.05
2023-01-13T17:23:31.879Z,6.92
2023-01-13T17:26:00.942Z,6.88
2023-01-13T17:28:29.943Z,6.93
2023-01-13T17:30:58.897Z,6.85
2023-01-13T17:33:27.741Z,6.68
2023-01-13T17:35:56.547Z,6.52
2023-01-13T17:38:25.343Z,6.40
2023-01-13T17:40:54.090Z,6.23
2023-01-13T17:43:22.807Z,6.15
2023-01-13T17:45:52.852Z,6.06
2023-01-13T17:48:21.503Z,5.98
2023-01-13T17:50:51.659Z,5.90
2023-01-13T17:53:21.304Z,5.88
2023-01-13T17:55:55.763Z,5.87
2023-01-13T17:58:24.715Z,5.92
2023-01-13T18:00:53.643Z,5.95
2023-01-13T18:03:22.402Z,5.96
2023-01-13T18:05:51.405Z,5.90
2023-01-13T18:08:21.896Z,5.92
2023-01-13T18:10:53.144Z,5.81
2023-01-13T18:13:21.892Z,5.87
2023-01-13T18:15:50.531Z,5.84
2023-01-13T18:18:19.375Z,5.77
2023-01-13T18:21:17.649Z,5.72
2023-01-13T18:24:05.357Z,5.83
2023-01-13T18:26:52.842Z,5.91
2023-01-13T18:29:22.218Z,5.92
2023-01-13T18:31:53.350Z,5.99
2023-01-13T18:34:23.117Z,6.00
2023-01-13T18:36:54.183Z,6.05
2023-01-13T18:39:27.664Z,6.24
2023-01-13T18:42:21.207Z,6.47
2023-01-13T18:44:50.118Z,6.55
2023-01-13T18:47:19.497Z,6.49
2023-01-13T18:49:49.236Z,6.46
2023-01-13T18:52:18.006Z,6.43
2023-01-13T18:54:47.899Z,6.41
2023-01-13T18:57:17.497Z,6.40
2023-01-13T18:59:46.300Z,6.37
2023-01-13T19:02:21.864Z,6.27
2023-01-13T19:04:50.754Z,6.19
2023-01-13T19:07:23.542Z,6.09
2023-01-13T19:10:01.797Z,6.01
2023-01-13T19:12:34.398Z,5.92
2023-01-13T19:15:05.302Z,5.90
2023-01-13T19:17:36.270Z,5.89
2023-01-13T19:20:05.668Z,5.89
2023-01-13T19:22:35.684Z,5.91
2023-01-13T19:25:06.290Z,5.94
2023-01-13T19:27:35.009Z,6.00
2023-01-13T19:30:04.267Z,6.07
2023-01-13T19:32:33.769Z,6.18
2023-01-13T19:35:02.582Z,6.22
2023-01-13T19:37:33.836Z,6.21
2023-01-13T19:40:07.043Z,6.18
2023-01-13T19:42:55.309Z,6.13
2023-01-13T19:45:27.327Z,6.07
2023-01-13T19:47:58.279Z,6.03
2023-01-13T19:50:27.069Z,5.97
2023-01-13T19:52:55.741Z,5.91
2023-01-13T19:55:24.701Z,5.87
2023-01-13T19:57:53.421Z,5.81
2023-01-13T20:00:22.369Z,5.73
2023-01-13T20:02:53.495Z,5.68
2023-01-13T20:05:26.149Z,5.65
2023-01-13T20:07:55.019Z,5.64
2023-01-13T20:10:25.053Z,5.66
2023-01-13T20:12:53.702Z,5.64
2023-01-13T20:15:22.484Z,5.59
2023-01-13T20:17:51.222Z,5.58
2023-01-13T20:20:22.545Z,5.54
2023-01-13T20:22:51.212Z,5.50
2023-01-13T20:25:20.784Z,5.48
2023-01-13T20:27:49.742Z,5.42
2023-01-13T20:30:18.491Z,5.38
2023-01-13T20:32:47.243Z,5.33
2023-01-13T20:35:16.061Z,5.29
2023-01-13T20:37:45.009Z,5.24
2023-01-13T20:40:16.415Z,5.13
2023-01-13T20:42:45.550Z,5.00
2023-01-13T20:45:20.768Z,4.86
2023-01-13T20:47:50.824Z,4.74
2023-01-13T20:50:19.721Z,4.68
2023-01-13T20:52:48.862Z,4.63
2023-01-13T20:55:17.590Z,4.67
2023-01-13T20:57:49.250Z,4.82
2023-01-13T21:00:18.687Z,4.86
2023-01-13T21:02:47.404Z,4.91
2023-01-13T21:05:16.612Z,4.94
2023-01-13T21:07:45.505Z,4.98
2023-01-13T21:10:14.261Z,5.01
2023-01-13T21:13:01.784Z,5.06
2023-01-13T21:15:30.824Z,5.10
2023-01-13T21:18:18.052Z,5.14
2023-01-13T21:20:46.759Z,5.13
2023-01-13T21:23:15.579Z,5.12
2023-01-13T21:25:44.337Z,5.11
2023-01-13T21:28:14.024Z,5.10
2023-01-13T21:30:44.199Z,5.10
2023-01-13T21:33:14.638Z,5.07
2023-01-13T21:35:43.410Z,5.01
2023-01-13T21:38:12.427Z,4.95
2023-01-13T21:40:41.081Z,4.89
2023-01-13T21:43:31.837Z,4.88
2023-01-13T21:46:19.221Z,4.82
2023-01-13T21:48:47.959Z,4.78
2023-01-13T21:51:17.205Z,4.70
2023-01-13T21:53:45.758Z,4.57
2023-01-13T21:56:14.533Z,4.46
2023-01-13T21:58:43.447Z,4.36
2023-01-13T22:01:12.342Z,4.27
2023-01-13T22:04:00.692Z,4.23
2023-01-13T22:06:29.471Z,4.17
2023-01-13T22:09:01.550Z,4.16
2023-01-13T22:11:32.220Z,4.15
2023-01-13T22:14:07.344Z,4.13
2023-01-13T22:16:42.013Z,4.14
2023-01-13T22:19:11.736Z,4.21
2023-01-13T22:21:40.625Z,4.28
2023-01-13T22:24:10.210Z,4.33
2023-01-13T22:26:38.925Z,4.34
2023-01-13T22:29:07.581Z,4.29
2023-01-13T22:31:36.480Z,4.27
2023-01-13T22:34:05.307Z,4.28
2023-01-13T22:36:34.085Z,4.31
2023-01-13T22:39:03.068Z,4.36
2023-01-13T22:41:32.025Z,4.40
2023-01-13T22:44:00.786Z,4.43
2023-01-13T22:46:29.579Z,4.43
2023-01-13T22:48:58.250Z,4.41
2023-01-13T22:51:27.668Z,4.36
2023-01-13T22:53:56.951Z,4.28
2023-01-13T22:56:27.530Z,4.18
2023-01-13T22:59:02.202Z,4.11
2023-01-13T23:02:10.784Z,4.10
2023-01-13T23:05:51.172Z,4.08
2023-01-13T23:35:07.454Z,3.94
2023-01-13T23:42:26.837Z,3.88
2023-01-13T23:57:46.265Z,3.41
